LEMG/AGP METAR and TAF weather

Enter ICAO airport designator
Station Type Date Time Source
LEMG METAR 2019/09/20 09:30 UTC NOAA

LEMG 200930Z 11007KT 090V150 8000 SCT020 BKN050 25/22 Q1016 NOSIG


Station Type Date Time Source
LEMG Decoded METAR 2019/09/20 09:30 UTC NOAA

Malaga / Aeropuerto, Spain (LEMG) 36-40N 004-29W 7M
Sep 20, 2019 - 05:30 AM EDT / 2019.09.20 0930 UTC
Wind: from the ESE (110 degrees) at 8 MPH (7 KT) (direction variable):0
Visibility: 4 mile(s):0
Sky conditions: mostly cloudy
Temperature: 77 F (25 C)
Dew Point: 71 F (22 C)
Relative Humidity: 83%
Pressure (altimeter): 30.00 in. Hg (1016 hPa)
ob: LEMG 200930Z 11007KT 090V150 8000 SCT020 BKN050 25/22 Q1016 NOSIG
cycle: 9

Station Type Date Time Source
LEMG TAF 2019/09/20 06:27 UTC NOAA

TAF TAF LEMG 200500Z 2006/2106 VRB02KT 9999 SCT015 TX26/2013Z TN21/2106Z PROB30
TEMPO 2006/2010 BKN010
BECMG 2008/2010 12009KT PROB30
TEMPO 2008/2015 RA
TEMPO 2020/2106 4000 SHRA BKN010 SCT020TCU

Example: see airport list